Terminal Aerodrome Forecast
Issued by NWS North Platte, NE

Home | Current Version | Previous Version | Text Only | Print | Product List | Glossary Off
Versions: 1 2 3 4 5 6 7 8 9 10 11 12 13 14 15 16 17 18 19 20 21

000
FTUS43 KLBF 071300 AAA
TAFVTN
TAF AMD
KVTN 071327Z 0713/0812 30012KT P6SM -RA VCTS SCT045CB BKN100
     FM071500 26009KT 5SM -TSRA BKN045CB OVC120
     FM071700 31006KT 5SM -TSRA BKN045CB OVC120
     FM072100 01012G18KT P6SM BKN120
     FM080100 35006KT P6SM SCT120=

USA.gov is the U.S. government's official web portal to all federal, state and local government web resources and services.